sensor_id;sensor_type;location;lat;lon;timestamp;pressure;altitude;pressure_sealevel;temperature;humidity
71126;BME280;58785;55.566;38.058;2023-01-25T00:01:52;101884.66;;;1.43;71.48
71126;BME280;58785;55.566;38.058;2023-01-25T00:04:19;101882.09;;;1.42;71.08
71126;BME280;58785;55.566;38.058;2023-01-25T00:06:45;101875.88;;;1.44;71.39
71126;BME280;58785;55.566;38.058;2023-01-25T00:09:11;101879.25;;;1.48;71.65
71126;BME280;58785;55.566;38.058;2023-01-25T00:11:38;101876.69;;;1.47;71.41
71126;BME280;58785;55.566;38.058;2023-01-25T00:14:04;101876.63;;;1.48;71.10
71126;BME280;58785;55.566;38.058;2023-01-25T00:16:30;101870.63;;;1.44;71.37
71126;BME280;58785;55.566;38.058;2023-01-25T00:18:56;101863.66;;;1.43;71.30
71126;BME280;58785;55.566;38.058;2023-01-25T00:21:23;101866.06;;;1.50;71.06
71126;BME280;58785;55.566;38.058;2023-01-25T00:23:50;101858.28;;;1.47;71.56
71126;BME280;58785;55.566;38.058;2023-01-25T00:26:17;101864.19;;;1.55;71.20
71126;BME280;58785;55.566;38.058;2023-01-25T00:28:51;101863.16;;;1.59;71.56
71126;BME280;58785;55.566;38.058;2023-01-25T00:31:31;101852.66;;;1.59;71.30
71126;BME280;58785;55.566;38.058;2023-01-25T00:39:07;101861.38;;;1.61;70.94
71126;BME280;58785;55.566;38.058;2023-01-25T00:41:35;101858.63;;;1.64;70.97
71126;BME280;58785;55.566;38.058;2023-01-25T00:44:01;101856.13;;;1.59;71.18
71126;BME280;58785;55.566;38.058;2023-01-25T00:46:26;101866.38;;;1.68;71.48
71126;BME280;58785;55.566;38.058;2023-01-25T00:48:53;101863.69;;;1.70;71.25
71126;BME280;58785;55.566;38.058;2023-01-25T00:51:19;101854.91;;;1.71;71.19
71126;BME280;58785;55.566;38.058;2023-01-25T00:53:45;101856.53;;;1.75;70.89
71126;BME280;58785;55.566;38.058;2023-01-25T00:56:10;101859.06;;;1.78;71.32
71126;BME280;58785;55.566;38.058;2023-01-25T00:58:36;101861.69;;;1.78;71.10
71126;BME280;58785;55.566;38.058;2023-01-25T01:01:01;101853.91;;;1.75;71.17
71126;BME280;58785;55.566;38.058;2023-01-25T01:03:27;101845.91;;;1.78;71.04
71126;BME280;58785;55.566;38.058;2023-01-25T01:06:19;101841.50;;;1.79;71.12
71126;BME280;58785;55.566;38.058;2023-01-25T01:08:45;101834.63;;;1.75;71.36
71126;BME280;58785;55.566;38.058;2023-01-25T01:11:11;101840.81;;;1.73;71.40
71126;BME280;58785;55.566;38.058;2023-01-25T01:13:38;101837.22;;;1.76;70.83
71126;BME280;58785;55.566;38.058;2023-01-25T01:16:06;101825.88;;;1.74;71.24
71126;BME280;58785;55.566;38.058;2023-01-25T01:18:41;101817.94;;;1.76;71.21
71126;BME280;58785;55.566;38.058;2023-01-25T01:21:08;101824.16;;;1.73;70.83
71126;BME280;58785;55.566;38.058;2023-01-25T01:23:35;101828.50;;;1.74;71.20
71126;BME280;58785;55.566;38.058;2023-01-25T01:26:02;101816.50;;;1.65;71.23
71126;BME280;58785;55.566;38.058;2023-01-25T01:28:30;101808.88;;;1.58;71.13
71126;BME280;58785;55.566;38.058;2023-01-25T01:31:03;101807.94;;;1.59;70.91
71126;BME280;58785;55.566;38.058;2023-01-25T01:33:29;101814.97;;;1.58;71.18
71126;BME280;58785;55.566;38.058;2023-01-25T01:35:55;101807.19;;;1.55;71.36
71126;BME280;58785;55.566;38.058;2023-01-25T01:38:21;101801.19;;;1.52;71.24
71126;BME280;58785;55.566;38.058;2023-01-25T01:40:47;101795.94;;;1.50;71.23
71126;BME280;58785;55.566;38.058;2023-01-25T01:43:22;101805.25;;;1.62;71.01
71126;BME280;58785;55.566;38.058;2023-01-25T01:51:54;101788.63;;;1.60;71.28
71126;BME280;58785;55.566;38.058;2023-01-25T01:57:16;101781.53;;;1.63;71.16
71126;BME280;58785;55.566;38.058;2023-01-25T01:59:45;101765.19;;;1.54;70.77
71126;BME280;58785;55.566;38.058;2023-01-25T02:02:14;101765.31;;;1.51;71.02
71126;BME280;58785;55.566;38.058;2023-01-25T02:04:42;101768.72;;;1.53;71.33
71126;BME280;58785;55.566;38.058;2023-01-25T02:07:22;101781.03;;;1.52;71.45
71126;BME280;58785;55.566;38.058;2023-01-25T02:09:50;101771.44;;;1.50;71.16
71126;BME280;58785;55.566;38.058;2023-01-25T02:12:17;101794.91;;;1.56;71.26
71126;BME280;58785;55.566;38.058;2023-01-25T02:14:48;101782.69;;;1.55;70.87
71126;BME280;58785;55.566;38.058;2023-01-25T02:17:14;101771.19;;;1.57;70.69
71126;BME280;58785;55.566;38.058;2023-01-25T02:20:01;101766.63;;;1.64;70.60
71126;BME280;58785;55.566;38.058;2023-01-25T02:22:44;101762.47;;;1.57;70.83
71126;BME280;58785;55.566;38.058;2023-01-25T02:25:12;101751.28;;;1.50;70.99
71126;BME280;58785;55.566;38.058;2023-01-25T02:27:50;101779.03;;;1.59;71.03
71126;BME280;58785;55.566;38.058;2023-01-25T02:30:17;101779.91;;;1.59;70.93
71126;BME280;58785;55.566;38.058;2023-01-25T02:32:43;101780.84;;;1.57;70.85
71126;BME280;58785;55.566;38.058;2023-01-25T02:35:17;101789.59;;;1.57;71.09
71126;BME280;58785;55.566;38.058;2023-01-25T02:37:44;101780.16;;;1.52;71.14
71126;BME280;58785;55.566;38.058;2023-01-25T02:40:10;101795.09;;;1.50;70.86
71126;BME280;58785;55.566;38.058;2023-01-25T02:42:36;101793.38;;;1.49;71.13
71126;BME280;58785;55.566;38.058;2023-01-25T02:45:02;101791.59;;;1.49;70.98
71126;BME280;58785;55.566;38.058;2023-01-25T02:47:30;101788.22;;;1.46;71.25
71126;BME280;58785;55.566;38.058;2023-01-25T02:49:55;101779.59;;;1.42;71.46
71126;BME280;58785;55.566;38.058;2023-01-25T02:52:21;101790.00;;;1.45;71.17
71126;BME280;58785;55.566;38.058;2023-01-25T02:54:46;101772.63;;;1.39;71.19
71126;BME280;58785;55.566;38.058;2023-01-25T02:57:12;101776.13;;;1.40;71.04
71126;BME280;58785;55.566;38.058;2023-01-25T02:59:38;101785.84;;;1.38;71.54
71126;BME280;58785;55.566;38.058;2023-01-25T03:02:03;101781.34;;;1.41;71.14
71126;BME280;58785;55.566;38.058;2023-01-25T03:04:29;101784.63;;;1.48;71.13
71126;BME280;58785;55.566;38.058;2023-01-25T03:06:54;101773.47;;;1.41;71.39
71126;BME280;58785;55.566;38.058;2023-01-25T03:09:20;101793.31;;;1.50;71.46
71126;BME280;58785;55.566;38.058;2023-01-25T03:11:45;101790.69;;;1.50;71.19
71126;BME280;58785;55.566;38.058;2023-01-25T03:14:11;101778.47;;;1.49;71.39
71126;BME280;58785;55.566;38.058;2023-01-25T03:16:37;101778.63;;;1.44;71.10
71126;BME280;58785;55.566;38.058;2023-01-25T03:19:02;101769.16;;;1.39;71.36
71126;BME280;58785;55.566;38.058;2023-01-25T03:21:28;101770.97;;;1.37;71.08
71126;BME280;58785;55.566;38.058;2023-01-25T03:23:56;101787.47;;;1.42;71.39
71126;BME280;58785;55.566;38.058;2023-01-25T03:26:24;101778.47;;;1.49;71.10
71126;BME280;58785;55.566;38.058;2023-01-25T03:28:49;101781.88;;;1.53;71.00
71126;BME280;58785;55.566;38.058;2023-01-25T03:31:16;101782.78;;;1.52;71.13
71126;BME280;58785;55.566;38.058;2023-01-25T03:33:42;101775.81;;;1.51;71.22
71126;BME280;58785;55.566;38.058;2023-01-25T03:36:09;101768.13;;;1.44;71.48
71126;BME280;58785;55.566;38.058;2023-01-25T03:38:35;101761.19;;;1.42;71.39
71126;BME280;58785;55.566;38.058;2023-01-25T03:41:01;101762.75;;;1.48;71.17
71126;BME280;58785;55.566;38.058;2023-01-25T03:43:29;101756.56;;;1.49;71.06
71126;BME280;58785;55.566;38.058;2023-01-25T03:45:57;101756.56;;;1.49;71.31
71126;BME280;58785;55.566;38.058;2023-01-25T03:48:24;101767.94;;;1.49;71.40
71126;BME280;58785;55.566;38.058;2023-01-25T03:50:52;101762.75;;;1.48;71.40
71126;BME280;58785;55.566;38.058;2023-01-25T03:53:19;101753.31;;;1.42;71.21
71126;BME280;58785;55.566;38.058;2023-01-25T03:56:05;101775.66;;;1.55;71.18
71126;BME280;58785;55.566;38.058;2023-01-25T03:58:35;101771.25;;;1.56;71.25
71126;BME280;58785;55.566;38.058;2023-01-25T04:01:03;101768.50;;;1.59;71.35
71126;BME280;58785;55.566;38.058;2023-01-25T04:03:29;101766.81;;;1.58;71.34
71126;BME280;58785;55.566;38.058;2023-01-25T04:05:57;101765.13;;;1.55;71.42
71126;BME280;58785;55.566;38.058;2023-01-25T04:08:24;101760.84;;;1.53;71.11
71126;BME280;58785;55.566;38.058;2023-01-25T04:10:54;101747.78;;;1.50;71.35
71126;BME280;58785;55.566;38.058;2023-01-25T04:13:21;101734.91;;;1.42;71.61
71126;BME280;58785;55.566;38.058;2023-01-25T04:15:48;101741.03;;;1.42;71.78
71126;BME280;58785;55.566;38.058;2023-01-25T04:18:14;101749.03;;;1.38;71.48
71126;BME280;58785;55.566;38.058;2023-01-25T04:20:40;101749.03;;;1.38;71.62
71126;BME280;58785;55.566;38.058;2023-01-25T04:23:06;101730.03;;;1.30;71.85
71126;BME280;58785;55.566;38.058;2023-01-25T04:25:32;101749.84;;;1.40;71.50
71126;BME280;58785;55.566;38.058;2023-01-25T04:27:58;101736.69;;;1.40;71.71
71126;BME280;58785;55.566;38.058;2023-01-25T04:30:23;101743.72;;;1.41;71.35
71126;BME280;58785;55.566;38.058;2023-01-25T04:32:49;101748.09;;;1.40;71.66
71126;BME280;58785;55.566;38.058;2023-01-25T04:35:15;101740.22;;;1.40;71.42
71126;BME280;58785;55.566;38.058;2023-01-25T04:37:40;101755.81;;;1.45;71.37
71126;BME280;58785;55.566;38.058;2023-01-25T04:40:07;101757.53;;;1.46;71.51
71126;BME280;58785;55.566;38.058;2023-01-25T04:42:33;101758.50;;;1.43;71.42
71126;BME280;58785;55.566;38.058;2023-01-25T04:44:59;101756.88;;;1.39;71.87
71126;BME280;58785;55.566;38.058;2023-01-25T04:47:24;101767.00;;;1.52;71.58
71126;BME280;58785;55.566;38.058;2023-01-25T04:49:50;101760.00;;;1.52;71.50
71126;BME280;58785;55.566;38.058;2023-01-25T04:52:15;101777.44;;;1.55;71.53
71126;BME280;58785;55.566;38.058;2023-01-25T04:54:41;101781.72;;;1.57;71.25
71126;BME280;58785;55.566;38.058;2023-01-25T04:57:07;101775.59;;;1.57;71.12
71126;BME280;58785;55.566;38.058;2023-01-25T04:59:32;101774.06;;;1.50;71.50
71126;BME280;58785;55.566;38.058;2023-01-25T05:01:58;101774.13;;;1.48;71.66
71126;BME280;58785;55.566;38.058;2023-01-25T05:04:24;101762.84;;;1.44;71.32
71126;BME280;58785;55.566;38.058;2023-01-25T05:06:49;101782.97;;;1.46;71.64
71126;BME280;58785;55.566;38.058;2023-01-25T05:09:15;101782.00;;;1.48;71.73
71126;BME280;58785;55.566;38.058;2023-01-25T05:11:41;101776.69;;;1.51;71.43
71126;BME280;58785;55.566;38.058;2023-01-25T05:14:07;101776.75;;;1.48;71.22
71126;BME280;58785;55.566;38.058;2023-01-25T05:16:35;101782.78;;;1.52;71.69
71126;BME280;58785;55.566;38.058;2023-01-25T05:19:01;101787.22;;;1.50;71.73
71126;BME280;58785;55.566;38.058;2023-01-25T05:21:26;101794.09;;;1.54;71.75
71126;BME280;58785;55.566;38.058;2023-01-25T05:24:11;101784.41;;;1.56;71.23
71126;BME280;58785;55.566;38.058;2023-01-25T05:26:36;101791.47;;;1.54;71.50
71126;BME280;58785;55.566;38.058;2023-01-25T05:29:20;101788.97;;;1.51;71.37
71126;BME280;58785;55.566;38.058;2023-01-25T05:31:46;101783.13;;;1.41;71.73
71126;BME280;58785;55.566;38.058;2023-01-25T05:34:11;101788.19;;;1.47;71.35
71126;BME280;58785;55.566;38.058;2023-01-25T05:36:37;101767.53;;;1.35;71.74
71126;BME280;58785;55.566;38.058;2023-01-25T05:39:06;101789.94;;;1.47;71.68
71126;BME280;58785;55.566;38.058;2023-01-25T05:41:32;101777.88;;;1.41;71.40
71126;BME280;58785;55.566;38.058;2023-01-25T05:43:58;101787.22;;;1.50;71.23
71126;BME280;58785;55.566;38.058;2023-01-25T05:46:26;101778.44;;;1.51;71.83
71126;BME280;58785;55.566;38.058;2023-01-25T05:48:52;101788.91;;;1.52;71.11
71126;BME280;58785;55.566;38.058;2023-01-25T05:51:17;101802.84;;;1.54;71.39
71126;BME280;58785;55.566;38.058;2023-01-25T05:53:43;101795.03;;;1.53;71.31
71126;BME280;58785;55.566;38.058;2023-01-25T05:56:09;101784.69;;;1.47;71.46
71126;BME280;58785;55.566;38.058;2023-01-25T05:58:36;101785.31;;;1.55;71.73
71126;BME280;58785;55.566;38.058;2023-01-25T06:01:04;101781.78;;;1.56;71.60
71126;BME280;58785;55.566;38.058;2023-01-25T06:03:30;101768.78;;;1.51;71.81
71126;BME280;58785;55.566;38.058;2023-01-25T06:05:58;101776.56;;;1.54;71.56
71126;BME280;58785;55.566;38.058;2023-01-25T06:08:24;101767.75;;;1.55;71.74
71126;BME280;58785;55.566;38.058;2023-01-25T06:10:50;101765.19;;;1.54;71.67
71126;BME280;58785;55.566;38.058;2023-01-25T06:13:16;101759.13;;;1.52;71.77
71126;BME280;58785;55.566;38.058;2023-01-25T06:15:42;101767.09;;;1.49;71.52
71126;BME280;58785;55.566;38.058;2023-01-25T06:18:08;101756.78;;;1.42;71.58
71126;BME280;58785;55.566;38.058;2023-01-25T06:20:33;101770.84;;;1.41;71.93
71126;BME280;58785;55.566;38.058;2023-01-25T06:22:59;101750.81;;;1.37;71.61
71126;BME280;58785;55.566;38.058;2023-01-25T06:25:25;101763.66;;;1.47;72.00
71126;BME280;58785;55.566;38.058;2023-01-25T06:27:54;101767.09;;;1.49;71.79
71126;BME280;58785;55.566;38.058;2023-01-25T06:30:19;101772.28;;;1.52;71.78
71126;BME280;58785;55.566;38.058;2023-01-25T06:32:45;101762.69;;;1.49;71.38
71126;BME280;58785;55.566;38.058;2023-01-25T06:35:11;101756.69;;;1.46;71.69
71126;BME280;58785;55.566;38.058;2023-01-25T06:37:36;101764.34;;;1.53;71.38
71126;BME280;58785;55.566;38.058;2023-01-25T06:40:02;101768.56;;;1.57;71.63
71126;BME280;58785;55.566;38.058;2023-01-25T06:42:28;101763.31;;;1.57;71.73
71126;BME280;58785;55.566;38.058;2023-01-25T06:44:54;101765.03;;;1.58;71.56
71126;BME280;58785;55.566;38.058;2023-01-25T06:47:20;101757.06;;;1.61;71.43
71126;BME280;58785;55.566;38.058;2023-01-25T06:49:45;101760.44;;;1.65;71.56
71126;BME280;58785;55.566;38.058;2023-01-25T06:52:11;101757.69;;;1.68;71.23
71126;BME280;58785;55.566;38.058;2023-01-25T06:54:37;101761.06;;;1.73;71.16
71126;BME280;58785;55.566;38.058;2023-01-25T06:57:02;101758.25;;;1.78;70.84
71126;BME280;58785;55.566;38.058;2023-01-25T06:59:28;101763.34;;;1.84;70.76
71126;BME280;58785;55.566;38.058;2023-01-25T07:01:54;101761.50;;;1.86;71.06
71126;BME280;58785;55.566;38.058;2023-01-25T07:04:19;101751.03;;;1.84;70.61
71126;BME280;58785;55.566;38.058;2023-01-25T07:06:45;101755.22;;;1.90;70.82
71126;BME280;58785;55.566;38.058;2023-01-25T07:09:12;101754.28;;;1.92;70.39
71126;BME280;58785;55.566;38.058;2023-01-25T07:11:39;101759.53;;;1.92;70.25
71126;BME280;58785;55.566;38.058;2023-01-25T07:14:04;101753.38;;;1.93;70.58
71126;BME280;58785;55.566;38.058;2023-01-25T07:16:30;101761.03;;;1.99;70.11
71126;BME280;58785;55.566;38.058;2023-01-25T07:19:05;101762.72;;;2.02;70.13
71126;BME280;58785;55.566;38.058;2023-01-25T07:21:32;101765.22;;;2.05;70.00
71126;BME280;58785;55.566;38.058;2023-01-25T07:24:02;101765.47;;;1.97;70.40
71126;BME280;58785;55.566;38.058;2023-01-25T07:26:29;101761.94;;;1.98;69.87
71126;BME280;58785;55.566;38.058;2023-01-25T07:28:56;101770.50;;;2.05;70.01
71126;BME280;58785;55.566;38.058;2023-01-25T07:31:22;101779.91;;;2.12;69.94
71126;BME280;58785;55.566;38.058;2023-01-25T07:33:53;101765.72;;;2.16;69.45
71126;BME280;58785;55.566;38.058;2023-01-25T07:36:19;101762.22;;;2.16;69.51
71126;BME280;58785;55.566;38.058;2023-01-25T07:38:45;101767.97;;;2.27;69.56
71126;BME280;58785;55.566;38.058;2023-01-25T07:41:11;101773.91;;;2.34;68.87
71126;BME280;58785;55.566;38.058;2023-01-25T07:43:37;101773.50;;;2.44;69.22
71126;BME280;58785;55.566;38.058;2023-01-25T07:46:05;101775.75;;;2.55;68.86
71126;BME280;58785;55.566;38.058;2023-01-25T07:48:32;101775.56;;;2.59;68.56
71126;BME280;58785;55.566;38.058;2023-01-25T07:50:59;101775.75;;;2.55;68.47
71126;BME280;58785;55.566;38.058;2023-01-25T07:53:41;101778.28;;;2.58;68.88
71126;BME280;58785;55.566;38.058;2023-01-25T07:56:09;101769.78;;;2.50;68.52
71126;BME280;58785;55.566;38.058;2023-01-25T07:58:36;101762.19;;;2.42;68.78
71126;BME280;58785;55.566;38.058;2023-01-25T08:01:06;101789.25;;;2.46;69.26
71126;BME280;58785;55.566;38.058;2023-01-25T08:03:32;101775.91;;;2.50;68.83
71126;BME280;58785;55.566;38.058;2023-01-25T08:05:57;101784.56;;;2.54;68.90
71126;BME280;58785;55.566;38.058;2023-01-25T08:08:23;101780.91;;;2.58;68.49
71126;BME280;58785;55.566;38.058;2023-01-25T08:10:48;101774.69;;;2.61;68.53
71126;BME280;58785;55.566;38.058;2023-01-25T08:13:14;101763.91;;;2.67;68.16
71126;BME280;58785;55.566;38.058;2023-01-25T08:15:40;101767.13;;;2.75;68.48
71126;BME280;58785;55.566;38.058;2023-01-25T08:18:05;101775.63;;;2.83;67.94
71126;BME280;58785;55.566;38.058;2023-01-25T08:20:31;101761.34;;;2.88;68.00
71126;BME280;58785;55.566;38.058;2023-01-25T08:22:56;101765.88;;;2.85;68.23
71126;BME280;58785;55.566;38.058;2023-01-25T08:25:22;101771.28;;;2.80;68.39
71126;BME280;58785;55.566;38.058;2023-01-25T08:27:48;101767.06;;;2.76;67.78
71126;BME280;58785;55.566;38.058;2023-01-25T08:30:14;101758.31;;;2.76;68.30
71126;BME280;58785;55.566;38.058;2023-01-25T08:32:39;101761.59;;;2.82;68.24
71126;BME280;58785;55.566;38.058;2023-01-25T08:35:05;101760.53;;;2.86;68.24
71126;BME280;58785;55.566;38.058;2023-01-25T08:37:31;101758.75;;;2.87;67.81
71126;BME280;58785;55.566;38.058;2023-01-25T08:39:57;101746.63;;;2.83;67.99
71126;BME280;58785;55.566;38.058;2023-01-25T08:42:24;101762.84;;;2.96;67.88
71126;BME280;58785;55.566;38.058;2023-01-25T08:44:50;101753.38;;;2.90;67.55
71126;BME280;58785;55.566;38.058;2023-01-25T08:47:16;101736.03;;;2.84;67.91
71126;BME280;58785;55.566;38.058;2023-01-25T08:49:41;101740.44;;;2.84;68.01
71126;BME280;58785;55.566;38.058;2023-01-25T08:52:07;101745.72;;;2.84;67.85
71126;BME280;58785;55.566;38.058;2023-01-25T08:54:33;101749.28;;;2.83;67.80
71126;BME280;58785;55.566;38.058;2023-01-25T08:57:00;101748.22;;;2.87;67.76
71126;BME280;58785;55.566;38.058;2023-01-25T08:59:25;101747.50;;;2.83;67.94
71126;BME280;58785;55.566;38.058;2023-01-25T09:01:51;101749.03;;;2.89;68.14
71126;BME280;58785;55.566;38.058;2023-01-25T09:04:17;101748.78;;;2.95;67.59
71126;BME280;58785;55.566;38.058;2023-01-25T09:06:43;101741.63;;;2.99;67.82
71126;BME280;58785;55.566;38.058;2023-01-25T09:09:09;101735.41;;;3.01;67.76
71126;BME280;58785;55.566;38.058;2023-01-25T09:11:35;101738.31;;;2.94;67.76
71126;BME280;58785;55.566;38.058;2023-01-25T09:14:02;101730.59;;;2.89;67.66
71126;BME280;58785;55.566;38.058;2023-01-25T09:16:28;101731.63;;;2.85;67.53
71126;BME280;58785;55.566;38.058;2023-01-25T09:19:00;101722.22;;;2.78;67.58
71126;BME280;58785;55.566;38.058;2023-01-25T09:21:26;101719.94;;;2.69;67.99
71126;BME280;58785;55.566;38.058;2023-01-25T09:23:53;101719.28;;;2.64;68.04
71126;BME280;58785;55.566;38.058;2023-01-25T09:26:18;101711.44;;;2.62;68.58
71126;BME280;58785;55.566;38.058;2023-01-25T09:28:52;101707.19;;;2.58;68.14
71126;BME280;58785;55.566;38.058;2023-01-25T09:31:19;101710.78;;;2.55;67.95
71126;BME280;58785;55.566;38.058;2023-01-25T09:33:46;101696.72;;;2.56;68.13
71126;BME280;58785;55.566;38.058;2023-01-25T09:36:11;101697.34;;;2.63;68.09
71126;BME280;58785;55.566;38.058;2023-01-25T09:38:37;101685.97;;;2.63;68.35
71126;BME280;58785;55.566;38.058;2023-01-25T09:44:40;101686.38;;;2.52;68.44
71126;BME280;58785;55.566;38.058;2023-01-25T09:46:47;101685.50;;;2.51;68.43
71126;BME280;58785;55.566;38.058;2023-01-25T09:55:11;101659.06;;;2.54;67.82
71126;BME280;58785;55.566;38.058;2023-01-25T09:57:39;101666.53;;;2.65;67.53
71126;BME280;58785;55.566;38.058;2023-01-25T10:00:21;101660.34;;;2.66;67.80
71126;BME280;58785;55.566;38.058;2023-01-25T10:05:49;101647.53;;;2.57;67.87
71126;BME280;58785;55.566;38.058;2023-01-25T10:10:43;101647.72;;;2.52;68.21
71126;BME280;58785;55.566;38.058;2023-01-25T10:13:18;101633.84;;;2.47;68.26
71126;BME280;58785;55.566;38.058;2023-01-25T10:15:52;101637.25;;;2.51;67.91
71126;BME280;58785;55.566;38.058;2023-01-25T10:20:57;101622.09;;;2.34;68.60
71126;BME280;58785;55.566;38.058;2023-01-25T10:28:45;101614.81;;;2.17;69.07
71126;BME280;58785;55.566;38.058;2023-01-25T10:31:19;101604.47;;;2.13;69.10
71126;BME280;58785;55.566;38.058;2023-01-25T10:33:47;101609.44;;;2.20;68.69
71126;BME280;58785;55.566;38.058;2023-01-25T10:36:20;101612.75;;;2.25;68.78
71126;BME280;58785;55.566;38.058;2023-01-25T10:38:48;101601.59;;;2.19;68.51
71126;BME280;58785;55.566;38.058;2023-01-25T10:41:37;101610.31;;;2.21;68.87
71126;BME280;58785;55.566;38.058;2023-01-25T10:44:08;101601.50;;;2.22;68.93
71126;BME280;58785;55.566;38.058;2023-01-25T10:49:45;101607.38;;;2.28;68.84
71126;BME280;58785;55.566;38.058;2023-01-25T10:54:50;101600.91;;;2.37;68.11
71126;BME280;58785;55.566;38.058;2023-01-25T10:57:30;101608.81;;;2.37;68.69
71126;BME280;58785;55.566;38.058;2023-01-25T10:59:59;101612.88;;;2.46;68.50
71126;BME280;58785;55.566;38.058;2023-01-25T11:02:38;101607.66;;;2.44;68.50
71126;BME280;58785;55.566;38.058;2023-01-25T11:05:27;101603.09;;;2.26;68.28
71126;BME280;58785;55.566;38.058;2023-01-25T11:07:54;101598.22;;;2.15;69.13
71126;BME280;58785;55.566;38.058;2023-01-25T11:10:32;101592.13;;;2.15;68.90
71126;BME280;58785;55.566;38.058;2023-01-25T11:15:43;101584.88;;;2.20;68.81
71126;BME280;58785;55.566;38.058;2023-01-25T11:18:17;101582.97;;;2.25;68.21
71126;BME280;58785;55.566;38.058;2023-01-25T11:20:43;101570.66;;;2.25;68.75
71126;BME280;58785;55.566;38.058;2023-01-25T11:23:23;101567.56;;;2.14;68.51
71126;BME280;58785;55.566;38.058;2023-01-25T11:25:50;101566.72;;;2.14;68.04
71126;BME280;58785;55.566;38.058;2023-01-25T11:28:19;101571.06;;;2.15;68.77
71126;BME280;58785;55.566;38.058;2023-01-25T11:30:46;101572.72;;;2.17;68.11
71126;BME280;58785;55.566;38.058;2023-01-25T11:33:13;101561.22;;;2.20;68.23
71126;BME280;58785;55.566;38.058;2023-01-25T11:36:13;101549.03;;;2.17;67.94
71126;BME280;58785;55.566;38.058;2023-01-25T12:06:37;101543.34;;;2.28;67.65
71126;BME280;58785;55.566;38.058;2023-01-25T12:09:16;101541.06;;;2.19;67.60
71126;BME280;58785;55.566;38.058;2023-01-25T12:14:41;101528.97;;;2.15;67.86
71126;BME280;58785;55.566;38.058;2023-01-25T12:17:45;101524.56;;;2.15;67.05
71126;BME280;58785;55.566;38.058;2023-01-25T12:25:35;101544.31;;;2.04;67.68
71126;BME280;58785;55.566;38.058;2023-01-25T12:28:18;101546.94;;;2.04;67.52
71126;BME280;58785;55.566;38.058;2023-01-25T12:30:51;101548.00;;;1.98;67.16
71126;BME280;58785;55.566;38.058;2023-01-25T12:36:23;101544.44;;;2.00;67.84
71126;BME280;58785;55.566;38.058;2023-01-25T12:39:02;101540.81;;;2.03;67.37
71126;BME280;58785;55.566;38.058;2023-01-25T12:42:01;101543.53;;;2.00;67.35
71126;BME280;58785;55.566;38.058;2023-01-25T12:52:58;101514.16;;;1.89;67.45
71126;BME280;58785;55.566;38.058;2023-01-25T12:55:26;101527.44;;;1.86;67.43
71126;BME280;58785;55.566;38.058;2023-01-25T13:03:33;101496.34;;;1.73;67.32
71126;BME280;58785;55.566;38.058;2023-01-25T13:11:33;101508.00;;;1.66;68.05
71126;BME280;58785;55.566;38.058;2023-01-25T13:14:35;101507.94;;;1.68;68.04
71126;BME280;58785;55.566;38.058;2023-01-25T13:17:32;101502.59;;;1.71;67.74
71126;BME280;58785;55.566;38.058;2023-01-25T13:23:03;101495.69;;;1.67;68.25
71126;BME280;58785;55.566;38.058;2023-01-25T13:25:29;101495.75;;;1.65;68.02
71126;BME280;58785;55.566;38.058;2023-01-25T13:31:01;101493.78;;;1.72;67.88
71126;BME280;58785;55.566;38.058;2023-01-25T13:33:32;101480.78;;;1.67;68.37
71126;BME280;58785;55.566;38.058;2023-01-25T13:42:01;101477.16;;;1.70;68.30
71126;BME280;58785;55.566;38.058;2023-01-25T13:44:30;101474.78;;;1.64;68.31
71126;BME280;58785;55.566;38.058;2023-01-25T13:46:59;101481.75;;;1.65;68.20
71126;BME280;58785;55.566;38.058;2023-01-25T13:52:20;101465.28;;;1.60;68.52
71126;BME280;58785;55.566;38.058;2023-01-25T13:54:47;101462.09;;;1.52;68.94
71126;BME280;58785;55.566;38.058;2023-01-25T13:57:19;101448.22;;;1.48;68.83
71126;BME280;58785;55.566;38.058;2023-01-25T13:59:45;101439.72;;;1.41;69.04
71126;BME280;58785;55.566;38.058;2023-01-25T14:02:22;101441.34;;;1.44;68.74
71126;BME280;58785;55.566;38.058;2023-01-25T14:04:50;101449.19;;;1.46;68.84
71126;BME280;58785;55.566;38.058;2023-01-25T14:07:19;101447.34;;;1.48;68.65
71126;BME280;58785;55.566;38.058;2023-01-25T14:09:46;101450.97;;;1.45;68.81
71126;BME280;58785;55.566;38.058;2023-01-25T14:15:22;101428.94;;;1.48;68.42
71126;BME280;58785;55.566;38.058;2023-01-25T14:18:17;101434.16;;;1.49;68.48
71126;BME280;58785;55.566;38.058;2023-01-25T14:20:45;101414.22;;;1.43;68.58
71126;BME280;58785;55.566;38.058;2023-01-25T14:25:47;101416.97;;;1.40;68.50
71126;BME280;58785;55.566;38.058;2023-01-25T14:28:13;101393.66;;;1.31;68.99
71126;BME280;58785;55.566;38.058;2023-01-25T14:30:40;101403.84;;;1.40;68.70
71126;BME280;58785;55.566;38.058;2023-01-25T14:33:18;101384.75;;;1.35;68.88
71126;BME280;58785;55.566;38.058;2023-01-25T14:35:47;101407.47;;;1.36;68.85
71126;BME280;58785;55.566;38.058;2023-01-25T14:38:27;101398.00;;;1.32;68.95
71126;BME280;58785;55.566;38.058;2023-01-25T14:41:30;101399.72;;;1.33;69.16
71126;BME280;58785;55.566;38.058;2023-01-25T14:44:01;101396.31;;;1.30;69.00
71126;BME280;58785;55.566;38.058;2023-01-25T14:46:30;101393.31;;;1.17;68.86
71126;BME280;58785;55.566;38.058;2023-01-25T14:49:25;101401.03;;;1.22;69.45
71126;BME280;58785;55.566;38.058;2023-01-25T14:52:09;101405.47;;;1.20;69.05
71126;BME280;58785;55.566;38.058;2023-01-25T14:54:44;101386.53;;;1.10;68.88
71126;BME280;58785;55.566;38.058;2023-01-25T14:57:34;101400.31;;;1.17;69.12
71126;BME280;58785;55.566;38.058;2023-01-25T15:00:03;101392.63;;;1.12;69.28
71126;BME280;58785;55.566;38.058;2023-01-25T15:02:49;101393.56;;;1.09;68.83
71126;BME280;58785;55.566;38.058;2023-01-25T15:05:24;101404.25;;;1.05;69.06